sensor_id;sensor_type;location;lat;lon;timestamp;pressure;altitude;pressure_sealevel;temperature;humidity
71361;BME280;59166;48.908;1.870;2023-09-12T00:01:38;100055.03;;;19.52;100.00
71361;BME280;59166;48.908;1.870;2023-09-12T00:06:39;100062.63;;;19.37;100.00
71361;BME280;59166;48.908;1.870;2023-09-12T00:11:42;100069.41;;;19.31;100.00
71361;BME280;59166;48.908;1.870;2023-09-12T00:16:43;100073.41;;;19.34;100.00
71361;BME280;59166;48.908;1.870;2023-09-12T00:21:44;100066.31;;;19.33;100.00
71361;BME280;59166;48.908;1.870;2023-09-12T00:26:46;100059.25;;;19.32;100.00
71361;BME280;59166;48.908;1.870;2023-09-12T00:31:47;100062.31;;;19.22;100.00
71361;BME280;59166;48.908;1.870;2023-09-12T00:36:48;100061.97;;;19.23;100.00
71361;BME280;59166;48.908;1.870;2023-09-12T00:41:50;100046.84;;;19.17;100.00
71361;BME280;59166;48.908;1.870;2023-09-12T00:46:53;100055.72;;;19.14;100.00
71361;BME280;59166;48.908;1.870;2023-09-12T00:51:56;100055.22;;;19.12;100.00
71361;BME280;59166;48.908;1.870;2023-09-12T00:56:58;100054.38;;;19.03;100.00
71361;BME280;59166;48.908;1.870;2023-09-12T01:02:00;100061.63;;;18.99;100.00
71361;BME280;59166;48.908;1.870;2023-09-12T01:07:02;100059.06;;;18.94;100.00
71361;BME280;59166;48.908;1.870;2023-09-12T01:12:06;100042.63;;;18.85;100.00
71361;BME280;59166;48.908;1.870;2023-09-12T01:17:07;100023.28;;;18.82;100.00
71361;BME280;59166;48.908;1.870;2023-09-12T01:22:46;100020.75;;;18.77;100.00
71361;BME280;59166;48.908;1.870;2023-09-12T01:27:55;100023.63;;;18.72;100.00
71361;BME280;59166;48.908;1.870;2023-09-12T01:32:59;100021.88;;;18.67;100.00
71361;BME280;59166;48.908;1.870;2023-09-12T01:38:00;100023.63;;;18.63;100.00
71361;BME280;59166;48.908;1.870;2023-09-12T01:43:04;100030.88;;;18.68;100.00
71361;BME280;59166;48.908;1.870;2023-09-12T01:48:06;100039.41;;;18.75;100.00
71361;BME280;59166;48.908;1.870;2023-09-12T01:53:08;100033.78;;;18.80;100.00
71361;BME280;59166;48.908;1.870;2023-09-12T01:58:11;100046.34;;;18.89;100.00
71361;BME280;59166;48.908;1.870;2023-09-12T02:03:12;100043.13;;;18.96;100.00
71361;BME280;59166;48.908;1.870;2023-09-12T02:08:13;100040.38;;;18.96;100.00
71361;BME280;59166;48.908;1.870;2023-09-12T02:13:15;100030.09;;;19.10;100.00
71361;BME280;59166;48.908;1.870;2023-09-12T02:18:16;100037.81;;;19.08;100.00
71361;BME280;59166;48.908;1.870;2023-09-12T02:23:17;100037.34;;;19.15;100.00
71361;BME280;59166;48.908;1.870;2023-09-12T02:28:20;100037.97;;;19.20;100.00
71361;BME280;59166;48.908;1.870;2023-09-12T02:33:20;100041.53;;;19.12;100.00
71361;BME280;59166;48.908;1.870;2023-09-12T02:38:21;100039.41;;;19.09;100.00
71361;BME280;59166;48.908;1.870;2023-09-12T02:43:24;100039.59;;;19.13;100.00
71361;BME280;59166;48.908;1.870;2023-09-12T02:48:25;100027.97;;;19.07;100.00
71361;BME280;59166;48.908;1.870;2023-09-12T02:53:26;100025.25;;;19.07;100.00
71361;BME280;59166;48.908;1.870;2023-09-12T02:58:28;100029.78;;;19.12;100.00
71361;BME280;59166;48.908;1.870;2023-09-12T03:03:29;100023.78;;;19.10;100.00
71361;BME280;59166;48.908;1.870;2023-09-12T03:08:30;100032.34;;;19.08;100.00
71361;BME280;59166;48.908;1.870;2023-09-12T03:13:32;100025.88;;;19.04;100.00
71361;BME280;59166;48.908;1.870;2023-09-12T03:18:33;100037.81;;;19.08;100.00
71361;BME280;59166;48.908;1.870;2023-09-12T03:23:34;100043.28;;;18.99;100.00
71361;BME280;59166;48.908;1.870;2023-09-12T03:28:36;100046.00;;;18.99;100.00
71361;BME280;59166;48.908;1.870;2023-09-12T03:33:38;100049.22;;;18.93;100.00
71361;BME280;59166;48.908;1.870;2023-09-12T03:38:39;100051.97;;;18.93;100.00
71361;BME280;59166;48.908;1.870;2023-09-12T03:43:41;100045.22;;;18.90;100.00
71361;BME280;59166;48.908;1.870;2023-09-12T03:48:42;100051.66;;;18.94;100.00
71361;BME280;59166;48.908;1.870;2023-09-12T03:53:43;100069.69;;;18.87;100.00
71361;BME280;59166;48.908;1.870;2023-09-12T03:58:45;100057.75;;;18.83;100.00
71361;BME280;59166;48.908;1.870;2023-09-12T04:03:46;100058.09;;;18.81;100.00
71361;BME280;59166;48.908;1.870;2023-09-12T04:08:47;100063.72;;;18.76;100.00
71361;BME280;59166;48.908;1.870;2023-09-12T04:13:50;100071.13;;;18.76;100.00
71361;BME280;59166;48.908;1.870;2023-09-12T04:18:51;100073.50;;;18.69;100.00
71361;BME280;59166;48.908;1.870;2023-09-12T04:23:52;100063.69;;;18.59;100.00
71361;BME280;59166;48.908;1.870;2023-09-12T04:28:54;100069.78;;;18.56;100.00
71361;BME280;59166;48.908;1.870;2023-09-12T04:33:55;100062.06;;;18.50;100.00
71361;BME280;59166;48.908;1.870;2023-09-12T04:38:56;100068.16;;;18.46;100.00
71361;BME280;59166;48.908;1.870;2023-09-12T04:43:58;100076.22;;;18.52;100.00
71361;BME280;59166;48.908;1.870;2023-09-12T04:48:59;100081.84;;;18.55;100.00
71361;BME280;59166;48.908;1.870;2023-09-12T04:54:00;100076.56;;;18.59;100.00
71361;BME280;59166;48.908;1.870;2023-09-12T04:59:02;100076.56;;;18.59;100.00
71361;BME280;59166;48.908;1.870;2023-09-12T05:04:03;100080.75;;;18.65;100.00
71361;BME280;59166;48.908;1.870;2023-09-12T05:09:04;100094.13;;;18.58;100.00
71361;BME280;59166;48.908;1.870;2023-09-12T05:14:07;100096.00;;;18.48;100.00
71361;BME280;59166;48.908;1.870;2023-09-12T05:19:08;100097.44;;;18.46;100.00
71361;BME280;59166;48.908;1.870;2023-09-12T05:24:10;100104.84;;;18.45;100.00
71361;BME280;59166;48.908;1.870;2023-09-12T05:29:12;100099.66;;;18.35;100.00
71361;BME280;59166;48.908;1.870;2023-09-12T05:34:13;100093.25;;;18.40;100.00
71361;BME280;59166;48.908;1.870;2023-09-12T05:39:13;100103.50;;;18.34;100.00
71361;BME280;59166;48.908;1.870;2023-09-12T05:44:16;100095.53;;;18.46;100.00
71361;BME280;59166;48.908;1.870;2023-09-12T05:49:16;100110.31;;;18.45;100.00
71361;BME280;59166;48.908;1.870;2023-09-12T05:54:17;100119.78;;;18.39;100.00
71361;BME280;59166;48.908;1.870;2023-09-12T05:59:19;100120.78;;;18.43;100.00
71361;BME280;59166;48.908;1.870;2023-09-12T06:04:19;100118.03;;;18.43;100.00
71361;BME280;59166;48.908;1.870;2023-09-12T06:09:20;100122.53;;;18.39;100.00
71361;BME280;59166;48.908;1.870;2023-09-12T06:14:22;100114.97;;;18.45;100.00
71361;BME280;59166;48.908;1.870;2023-09-12T06:19:23;100116.59;;;18.37;100.00
71361;BME280;59166;48.908;1.870;2023-09-12T06:24:23;100117.06;;;18.48;100.00
71361;BME280;59166;48.908;1.870;2023-09-12T06:29:26;100117.59;;;18.59;100.00
71361;BME280;59166;48.908;1.870;2023-09-12T06:34:26;100121.13;;;18.59;100.00
71361;BME280;59166;48.908;1.870;2023-09-12T06:39:27;100122.41;;;18.53;100.00
71361;BME280;59166;48.908;1.870;2023-09-12T06:44:29;100119.69;;;18.62;100.00
71361;BME280;59166;48.908;1.870;2023-09-12T06:49:29;100121.94;;;18.60;100.00
71361;BME280;59166;48.908;1.870;2023-09-12T06:54:30;100105.66;;;18.55;100.00
71361;BME280;59166;48.908;1.870;2023-09-12T06:59:32;100104.88;;;18.54;100.00
71361;BME280;59166;48.908;1.870;2023-09-12T07:04:33;100091.25;;;18.71;100.00
71361;BME280;59166;48.908;1.870;2023-09-12T07:09:33;100096.72;;;18.71;100.00
71361;BME280;59166;48.908;1.870;2023-09-12T07:14:35;100103.81;;;18.81;100.00
71361;BME280;59166;48.908;1.870;2023-09-12T07:19:36;100127.31;;;18.82;100.00
71361;BME280;59166;48.908;1.870;2023-09-12T07:24:37;100140.16;;;18.73;100.00
71361;BME280;59166;48.908;1.870;2023-09-12T07:29:39;100152.22;;;18.63;100.00
71361;BME280;59166;48.908;1.870;2023-09-12T07:34:39;100148.53;;;18.68;100.00
71361;BME280;59166;48.908;1.870;2023-09-12T07:39:40;100151.75;;;18.78;100.00
71361;BME280;59166;48.908;1.870;2023-09-12T07:44:42;100151.31;;;18.85;100.00
71361;BME280;59166;48.908;1.870;2023-09-12T07:49:43;100156.81;;;18.85;100.00
71361;BME280;59166;48.908;1.870;2023-09-12T07:54:43;100154.19;;;18.80;100.00
71361;BME280;59166;48.908;1.870;2023-09-12T07:59:45;100164.50;;;18.83;100.00
71361;BME280;59166;48.908;1.870;2023-09-12T08:04:46;100156.75;;;18.76;100.00
71361;BME280;59166;48.908;1.870;2023-09-12T08:09:50;100169.63;;;18.76;100.00
71361;BME280;59166;48.908;1.870;2023-09-12T08:14:53;100160.94;;;18.74;100.00
71361;BME280;59166;48.908;1.870;2023-09-12T08:19:54;100165.63;;;18.82;100.00
71361;BME280;59166;48.908;1.870;2023-09-12T08:24:54;100158.25;;;18.91;100.00
71361;BME280;59166;48.908;1.870;2023-09-12T08:29:57;100154.88;;;18.94;100.00
71361;BME280;59166;48.908;1.870;2023-09-12T08:34:58;100165.34;;;19.09;100.00
71361;BME280;59166;48.908;1.870;2023-09-12T08:39:58;100160.53;;;19.06;100.00
71361;BME280;59166;48.908;1.870;2023-09-12T08:45:01;100152.31;;;19.06;100.00
71361;BME280;59166;48.908;1.870;2023-09-12T08:50:03;100151.19;;;19.07;100.00
71361;BME280;59166;48.908;1.870;2023-09-12T08:55:05;100136.75;;;19.15;100.00
71361;BME280;59166;48.908;1.870;2023-09-12T09:00:08;100144.31;;;19.27;100.00
71361;BME280;59166;48.908;1.870;2023-09-12T09:05:11;100168.16;;;19.26;100.00
71361;BME280;59166;48.908;1.870;2023-09-12T09:10:14;100167.03;;;19.19;100.00
71361;BME280;59166;48.908;1.870;2023-09-12T09:15:23;100154.78;;;19.16;100.00
71361;BME280;59166;48.908;1.870;2023-09-12T09:20:28;100155.34;;;18.96;100.00
71361;BME280;59166;48.908;1.870;2023-09-12T09:25:29;100161.16;;;18.94;100.00
71361;BME280;59166;48.908;1.870;2023-09-12T09:30:41;100148.28;;;18.95;100.00
71361;BME280;59166;48.908;1.870;2023-09-12T09:35:43;100158.72;;;18.93;100.00
71361;BME280;59166;48.908;1.870;2023-09-12T09:40:45;100164.84;;;18.98;100.00
71361;BME280;59166;48.908;1.870;2023-09-12T09:45:48;100172.41;;;18.93;100.00
71361;BME280;59166;48.908;1.870;2023-09-12T09:50:49;100188.53;;;18.94;100.00
71361;BME280;59166;48.908;1.870;2023-09-12T09:55:50;100198.81;;;18.89;100.00
71361;BME280;59166;48.908;1.870;2023-09-12T10:00:52;100207.50;;;18.82;100.00
71361;BME280;59166;48.908;1.870;2023-09-12T10:05:53;100214.56;;;18.75;100.00
71361;BME280;59166;48.908;1.870;2023-09-12T10:10:55;100226.75;;;18.69;100.00
71361;BME280;59166;48.908;1.870;2023-09-12T10:15:58;100239.41;;;18.56;100.00
71361;BME280;59166;48.908;1.870;2023-09-12T10:21:04;100251.19;;;18.57;100.00
71361;BME280;59166;48.908;1.870;2023-09-12T10:26:10;100249.19;;;18.48;100.00
71361;BME280;59166;48.908;1.870;2023-09-12T10:31:13;100226.38;;;18.53;100.00
71361;BME280;59166;48.908;1.870;2023-09-12T10:36:15;100223.44;;;18.41;100.00
71361;BME280;59166;48.908;1.870;2023-09-12T10:41:19;100219.38;;;18.38;100.00
71361;BME280;59166;48.908;1.870;2023-09-12T10:46:23;100214.31;;;18.23;100.00
71361;BME280;59166;48.908;1.870;2023-09-12T10:51:23;100192.06;;;18.16;100.00
71361;BME280;59166;48.908;1.870;2023-09-12T10:56:24;100190.69;;;18.05;100.00
71361;BME280;59166;48.908;1.870;2023-09-12T11:01:26;100194.91;;;18.11;100.00
71361;BME280;59166;48.908;1.870;2023-09-12T11:06:29;100196.44;;;18.17;100.00
71361;BME280;59166;48.908;1.870;2023-09-12T11:11:30;100183.53;;;18.18;100.00
71361;BME280;59166;48.908;1.870;2023-09-12T11:16:32;100174.56;;;18.17;100.00
71361;BME280;59166;48.908;1.870;2023-09-12T11:21:32;100179.06;;;18.22;100.00
71361;BME280;59166;48.908;1.870;2023-09-12T11:26:33;100173.66;;;18.30;100.00
71361;BME280;59166;48.908;1.870;2023-09-12T11:31:35;100178.16;;;18.35;100.00
71361;BME280;59166;48.908;1.870;2023-09-12T11:36:41;100178.34;;;18.38;100.00
71361;BME280;59166;48.908;1.870;2023-09-12T11:41:42;100169.03;;;18.39;100.00
71361;BME280;59166;48.908;1.870;2023-09-12T11:46:47;100163.41;;;18.44;100.00
71361;BME280;59166;48.908;1.870;2023-09-12T11:51:49;100160.72;;;18.62;100.00
71361;BME280;59166;48.908;1.870;2023-09-12T11:56:50;100166.44;;;18.82;100.00
71361;BME280;59166;48.908;1.870;2023-09-12T12:01:53;100169.22;;;18.99;100.00
71361;BME280;59166;48.908;1.870;2023-09-12T12:06:54;100168.63;;;19.20;100.00
71361;BME280;59166;48.908;1.870;2023-09-12T12:11:55;100163.66;;;19.39;100.00
71361;BME280;59166;48.908;1.870;2023-09-12T12:16:57;100165.44;;;19.52;100.00
71361;BME280;59166;48.908;1.870;2023-09-12T12:22:05;100168.94;;;19.70;100.00
71361;BME280;59166;48.908;1.870;2023-09-12T12:27:06;100188.63;;;19.72;100.00
71361;BME280;59166;48.908;1.870;2023-09-12T12:32:08;100181.72;;;19.66;100.00
71361;BME280;59166;48.908;1.870;2023-09-12T12:37:10;100190.25;;;19.56;100.00
71361;BME280;59166;48.908;1.870;2023-09-12T12:42:11;100185.88;;;19.63;100.00
71361;BME280;59166;48.908;1.870;2023-09-12T12:47:13;100183.97;;;19.55;100.00
71361;BME280;59166;48.908;1.870;2023-09-12T12:52:14;100181.34;;;19.84;100.00
71361;BME280;59166;48.908;1.870;2023-09-12T12:57:18;100187.31;;;20.12;100.00
71361;BME280;59166;48.908;1.870;2023-09-12T13:02:20;100181.63;;;20.26;100.00
71361;BME280;59166;48.908;1.870;2023-09-12T13:07:21;100177.09;;;20.30;100.00
71361;BME280;59166;48.908;1.870;2023-09-12T13:12:22;100177.31;;;20.08;100.00
71361;BME280;59166;48.908;1.870;2023-09-12T13:17:24;100184.56;;;19.95;100.00
71361;BME280;59166;48.908;1.870;2023-09-12T13:22:25;100189.59;;;19.93;100.00
71361;BME280;59166;48.908;1.870;2023-09-12T13:27:26;100186.19;;;19.87;100.00
71361;BME280;59166;48.908;1.870;2023-09-12T13:32:28;100182.34;;;19.71;100.00
71361;BME280;59166;48.908;1.870;2023-09-12T13:37:29;100189.63;;;19.59;100.00
71361;BME280;59166;48.908;1.870;2023-09-12T13:42:29;100187.66;;;19.51;100.00
71361;BME280;59166;48.908;1.870;2023-09-12T13:47:31;100191.53;;;19.41;100.00
71361;BME280;59166;48.908;1.870;2023-09-12T13:52:32;100176.69;;;19.33;100.00
71361;BME280;59166;48.908;1.870;2023-09-12T13:57:32;100192.16;;;19.29;100.00
71361;BME280;59166;48.908;1.870;2023-09-12T14:02:35;100185.09;;;19.28;100.00
71361;BME280;59166;48.908;1.870;2023-09-12T14:07:35;100186.84;;;19.24;100.00
71361;BME280;59166;48.908;1.870;2023-09-12T14:12:36;100182.66;;;19.18;100.00
71361;BME280;59166;48.908;1.870;2023-09-12T14:17:38;100187.97;;;19.15;100.00
71361;BME280;59166;48.908;1.870;2023-09-12T14:22:39;100186.66;;;19.12;100.00
71361;BME280;59166;48.908;1.870;2023-09-12T14:27:40;100189.06;;;19.05;100.00
71361;BME280;59166;48.908;1.870;2023-09-12T14:32:42;100188.91;;;19.10;100.00
71361;BME280;59166;48.908;1.870;2023-09-12T14:37:43;100181.34;;;19.16;100.00
71361;BME280;59166;48.908;1.870;2023-09-12T14:42:43;100190.81;;;19.10;100.00
71361;BME280;59166;48.908;1.870;2023-09-12T14:47:45;100185.81;;;19.03;100.00
71361;BME280;59166;48.908;1.870;2023-09-12T14:52:46;100193.69;;;18.96;100.00
71361;BME280;59166;48.908;1.870;2023-09-12T14:57:47;100189.34;;;18.95;100.00
71361;BME280;59166;48.908;1.870;2023-09-12T15:02:49;100180.63;;;18.93;100.00
71361;BME280;59166;48.908;1.870;2023-09-12T15:07:49;100177.06;;;18.84;100.00
71361;BME280;59166;48.908;1.870;2023-09-12T15:12:50;100185.13;;;18.80;100.00
71361;BME280;59166;48.908;1.870;2023-09-12T15:17:52;100191.41;;;18.81;100.00
71361;BME280;59166;48.908;1.870;2023-09-12T15:22:52;100183.19;;;18.81;100.00
71361;BME280;59166;48.908;1.870;2023-09-12T15:27:55;100182.22;;;18.85;100.00
71361;BME280;59166;48.908;1.870;2023-09-12T15:32:57;100181.75;;;18.92;100.00
71361;BME280;59166;48.908;1.870;2023-09-12T15:37:58;100176.44;;;18.95;100.00
71361;BME280;59166;48.908;1.870;2023-09-12T15:42:59;100180.16;;;18.99;100.00
71361;BME280;59166;48.908;1.870;2023-09-12T15:48:02;100177.75;;;19.07;100.00
71361;BME280;59166;48.908;1.870;2023-09-12T15:53:03;100164.44;;;19.14;100.00
71361;BME280;59166;48.908;1.870;2023-09-12T15:58:03;100164.75;;;19.29;100.00
71361;BME280;59166;48.908;1.870;2023-09-12T16:03:05;100169.59;;;19.49;100.00
71361;BME280;59166;48.908;1.870;2023-09-12T16:08:07;100171.88;;;19.47;100.00
71361;BME280;59166;48.908;1.870;2023-09-12T16:13:08;100168.16;;;19.43;100.00
71361;BME280;59166;48.908;1.870;2023-09-12T16:18:10;100158.81;;;19.44;100.00
71361;BME280;59166;48.908;1.870;2023-09-12T16:23:10;100161.06;;;19.51;100.00
71361;BME280;59166;48.908;1.870;2023-09-12T16:28:11;100148.00;;;19.57;100.00
71361;BME280;59166;48.908;1.870;2023-09-12T16:33:13;100149.78;;;19.53;100.00
71361;BME280;59166;48.908;1.870;2023-09-12T16:38:14;100146.09;;;19.48;100.00
71361;BME280;59166;48.908;1.870;2023-09-12T16:43:14;100146.41;;;19.38;100.00
71361;BME280;59166;48.908;1.870;2023-09-12T16:48:16;100152.38;;;19.40;100.00
71361;BME280;59166;48.908;1.870;2023-09-12T16:53:17;100146.09;;;19.40;100.00
71361;BME280;59166;48.908;1.870;2023-09-12T16:58:18;100154.47;;;19.43;100.00
71361;BME280;59166;48.908;1.870;2023-09-12T17:03:20;100152.38;;;19.40;100.00
71361;BME280;59166;48.908;1.870;2023-09-12T17:08:22;100166.06;;;19.40;100.00
71361;BME280;59166;48.908;1.870;2023-09-12T17:13:22;100172.03;;;19.42;100.00
71361;BME280;59166;48.908;1.870;2023-09-12T17:18:24;100165.28;;;19.48;100.00
71361;BME280;59166;48.908;1.870;2023-09-12T17:23:25;100165.75;;;19.42;100.00
71361;BME280;59166;48.908;1.870;2023-09-12T17:28:26;100159.63;;;19.36;100.00
71361;BME280;59166;48.908;1.870;2023-09-12T17:33:28;100158.03;;;19.35;100.00
71361;BME280;59166;48.908;1.870;2023-09-12T17:38:29;100168.81;;;19.32;100.00
71361;BME280;59166;48.908;1.870;2023-09-12T17:43:29;100174.47;;;19.35;100.00
71361;BME280;59166;48.908;1.870;2023-09-12T17:48:31;100183.59;;;19.22;100.00
71361;BME280;59166;48.908;1.870;2023-09-12T17:53:32;100175.88;;;19.16;100.00
71361;BME280;59166;48.908;1.870;2023-09-12T17:58:32;100180.50;;;19.07;100.00
71361;BME280;59166;48.908;1.870;2023-09-12T18:03:34;100189.81;;;18.97;100.00
71361;BME280;59166;48.908;1.870;2023-09-12T18:08:35;100191.09;;;18.91;100.00
71361;BME280;59166;48.908;1.870;2023-09-12T18:13:36;100186.28;;;18.88;100.00
71361;BME280;59166;48.908;1.870;2023-09-12T18:18:38;100198.00;;;18.88;100.00
71361;BME280;59166;48.908;1.870;2023-09-12T18:23:38;100203.47;;;18.80;100.00
71361;BME280;59166;48.908;1.870;2023-09-12T18:28:40;100202.75;;;18.66;100.00
71361;BME280;59166;48.908;1.870;2023-09-12T18:33:43;100214.50;;;18.58;100.00
71361;BME280;59166;48.908;1.870;2023-09-12T18:38:44;100213.00;;;18.52;100.00
71361;BME280;59166;48.908;1.870;2023-09-12T18:43:47;100209.41;;;18.42;100.00
71361;BME280;59166;48.908;1.870;2023-09-12T18:48:49;100216.63;;;18.38;100.00
71361;BME280;59166;48.908;1.870;2023-09-12T18:53:49;100224.19;;;18.33;100.00
71361;BME280;59166;48.908;1.870;2023-09-12T18:58:50;100242.03;;;18.30;100.00
71361;BME280;59166;48.908;1.870;2023-09-12T19:03:52;100232.81;;;18.26;100.00
71361;BME280;59166;48.908;1.870;2023-09-12T19:08:53;100230.53;;;18.20;100.00
71361;BME280;59166;48.908;1.870;2023-09-12T19:13:53;100233.50;;;18.10;100.00
71361;BME280;59166;48.908;1.870;2023-09-12T19:18:56;100244.88;;;18.03;100.00
71361;BME280;59166;48.908;1.870;2023-09-12T19:23:57;100245.34;;;18.05;100.00
71361;BME280;59166;48.908;1.870;2023-09-12T19:28:58;100252.25;;;18.03;100.00
71361;BME280;59166;48.908;1.870;2023-09-12T19:34:00;100253.06;;;18.03;100.00
71361;BME280;59166;48.908;1.870;2023-09-12T19:39:00;100254.81;;;17.99;100.00
71361;BME280;59166;48.908;1.870;2023-09-12T19:44:02;100260.28;;;17.99;100.00
71361;BME280;59166;48.908;1.870;2023-09-12T19:49:04;100260.56;;;17.97;100.00
71361;BME280;59166;48.908;1.870;2023-09-12T19:54:06;100265.75;;;17.99;100.00
71361;BME280;59166;48.908;1.870;2023-09-12T19:59:06;100275.88;;;17.98;100.00
71361;BME280;59166;48.908;1.870;2023-09-12T20:04:09;100276.19;;;17.97;100.00
71361;BME280;59166;48.908;1.870;2023-09-12T20:09:09;100283.88;;;17.95;100.00
71361;BME280;59166;48.908;1.870;2023-09-12T20:14:10;100287.41;;;17.95;100.00
71361;BME280;59166;48.908;1.870;2023-09-12T20:19:13;100285.78;;;17.94;100.00
71361;BME280;59166;48.908;1.870;2023-09-12T20:24:14;100293.69;;;17.96;100.00
71361;BME280;59166;48.908;1.870;2023-09-12T20:29:14;100296.53;;;17.91;100.00
71361;BME280;59166;48.908;1.870;2023-09-12T20:34:16;100305.53;;;17.91;100.00
71361;BME280;59166;48.908;1.870;2023-09-12T20:39:22;100299.88;;;17.88;100.00
71361;BME280;59166;48.908;1.870;2023-09-12T20:44:23;100295.22;;;17.88;100.00
71361;BME280;59166;48.908;1.870;2023-09-12T20:49:26;100294.22;;;17.84;100.00
71361;BME280;59166;48.908;1.870;2023-09-12T20:54:26;100298.09;;;17.83;100.00
71361;BME280;59166;48.908;1.870;2023-09-12T20:59:28;100301.13;;;17.82;100.00
71361;BME280;59166;48.908;1.870;2023-09-12T21:04:30;100296.97;;;17.84;100.00
71361;BME280;59166;48.908;1.870;2023-09-12T21:09:30;100298.09;;;17.83;100.00
71361;BME280;59166;48.908;1.870;2023-09-12T21:14:31;100293.41;;;17.84;100.00
71361;BME280;59166;48.908;1.870;2023-09-12T21:19:33;100301.13;;;17.82;100.00
71361;BME280;59166;48.908;1.870;2023-09-12T21:24:34;100306.88;;;17.80;100.00
71361;BME280;59166;48.908;1.870;2023-09-12T21:29:35;100313.34;;;17.84;100.00
71361;BME280;59166;48.908;1.870;2023-09-12T21:34:37;100304.88;;;17.86;100.00
71361;BME280;59166;48.908;1.870;2023-09-12T21:39:37;100319.22;;;17.91;100.00
71361;BME280;59166;48.908;1.870;2023-09-12T21:44:38;100314.13;;;17.98;100.00
71361;BME280;59166;48.908;1.870;2023-09-12T21:49:40;100318.34;;;18.05;100.00
71361;BME280;59166;48.908;1.870;2023-09-12T21:54:41;100318.69;;;18.03;100.00
71361;BME280;59166;48.908;1.870;2023-09-12T21:59:41;100320.72;;;17.97;100.00
71361;BME280;59166;48.908;1.870;2023-09-12T22:04:44;100317.97;;;17.97;100.00
71361;BME280;59166;48.908;1.870;2023-09-12T22:09:44;100315.44;;;18.01;100.00
71361;BME280;59166;48.908;1.870;2023-09-12T22:14:45;100324.16;;;18.03;100.00
71361;BME280;59166;48.908;1.870;2023-09-12T22:19:47;100334.56;;;18.01;100.00
71361;BME280;59166;48.908;1.870;2023-09-12T22:24:48;100333.47;;;18.02;100.00
71361;BME280;59166;48.908;1.870;2023-09-12T22:29:51;100340.84;;;18.02;100.00
71361;BME280;59166;48.908;1.870;2023-09-12T22:34:53;100349.38;;;18.00;100.00
71361;BME280;59166;48.908;1.870;2023-09-12T22:39:54;100340.97;;;17.96;100.00
71361;BME280;59166;48.908;1.870;2023-09-12T22:44:55;100343.72;;;17.96;100.00
71361;BME280;59166;48.908;1.870;2023-09-12T22:49:57;100346.25;;;17.93;100.00
71361;BME280;59166;48.908;1.870;2023-09-12T22:54:58;100348.66;;;17.94;100.00
71361;BME280;59166;48.908;1.870;2023-09-12T22:59:59;100351.63;;;17.84;100.00
71361;BME280;59166;48.908;1.870;2023-09-12T23:05:01;100357.41;;;17.83;100.00
71361;BME280;59166;48.908;1.870;2023-09-12T23:10:02;100358.91;;;17.89;100.00
71361;BME280;59166;48.908;1.870;2023-09-12T23:15:03;100355.78;;;17.82;100.00
71361;BME280;59166;48.908;1.870;2023-09-12T23:20:06;100352.63;;;17.88;100.00
71361;BME280;59166;48.908;1.870;2023-09-12T23:25:07;100353.72;;;17.87;100.00
71361;BME280;59166;48.908;1.870;2023-09-12T23:30:09;100359.44;;;17.77;100.00
71361;BME280;59166;48.908;1.870;2023-09-12T23:35:12;100363.09;;;17.73;100.00
71361;BME280;59166;48.908;1.870;2023-09-12T23:40:12;100364.81;;;17.69;100.00
71361;BME280;59166;48.908;1.870;2023-09-12T23:45:13;100368.56;;;17.73;100.00
71361;BME280;59166;48.908;1.870;2023-09-12T23:50:15;100367.94;;;17.76;100.00
71361;BME280;59166;48.908;1.870;2023-09-12T23:55:16;100371.69;;;17.80;100.00
